createdAt,value
2018-09-18T00:01:27.751Z,13.40
2018-09-18T00:03:56.262Z,14.00
2018-09-18T00:06:24.825Z,12.77
2018-09-18T00:08:53.325Z,13.20
2018-09-18T00:11:21.818Z,11.60
2018-09-18T00:13:50.310Z,11.53
2018-09-18T00:16:18.821Z,12.60
2018-09-18T00:18:47.483Z,13.13
2018-09-18T00:21:15.957Z,13.10
2018-09-18T00:23:44.476Z,12.27
2018-09-18T00:26:12.975Z,11.83
2018-09-18T00:28:41.521Z,13.10
2018-09-18T00:31:10.803Z,10.13
2018-09-18T00:33:39.303Z,11.57
2018-09-18T00:36:07.854Z,12.53
2018-09-18T00:38:36.320Z,11.57
2018-09-18T00:41:04.799Z,11.07
2018-09-18T00:43:33.274Z,10.60
2018-09-18T00:46:01.770Z,10.83
2018-09-18T00:48:30.293Z,9.70
2018-09-18T00:50:58.835Z,10.00
2018-09-18T00:53:33.867Z,10.40
2018-09-18T00:56:02.399Z,8.40
2018-09-18T00:58:30.885Z,9.67
2018-09-18T01:00:59.391Z,8.80
2018-09-18T01:03:27.862Z,7.83
2018-09-18T01:05:56.429Z,9.13
2018-09-18T01:08:24.915Z,8.00
2018-09-18T01:10:53.425Z,7.97
2018-09-18T01:13:21.965Z,7.43
2018-09-18T01:15:50.517Z,7.67
2018-09-18T01:18:18.986Z,7.93
2018-09-18T01:20:47.513Z,6.97
2018-09-18T01:23:16.024Z,6.80
2018-09-18T01:25:44.833Z,7.40
2018-09-18T01:28:13.321Z,7.43
2018-09-18T01:30:41.781Z,7.77
2018-09-18T01:33:10.293Z,7.40
2018-09-18T01:35:38.794Z,7.70
2018-09-18T01:38:07.347Z,8.53
2018-09-18T01:40:35.847Z,7.27
2018-09-18T01:43:04.352Z,7.17
2018-09-18T01:45:33.119Z,6.90
2018-09-18T01:48:01.597Z,6.63
2018-09-18T01:50:30.092Z,8.00
2018-09-18T01:52:58.606Z,7.10
2018-09-18T01:55:27.214Z,7.37
2018-09-18T01:57:55.715Z,6.47
2018-09-18T02:00:24.264Z,6.70
2018-09-18T02:02:52.805Z,7.27
2018-09-18T02:05:21.578Z,6.97
2018-09-18T02:07:50.095Z,7.40
2018-09-18T02:10:18.579Z,7.57
2018-09-18T02:12:47.084Z,7.23
2018-09-18T02:15:15.615Z,7.40
2018-09-18T02:17:44.118Z,7.40
2018-09-18T02:20:12.638Z,7.90
2018-09-18T02:22:41.207Z,8.40
2018-09-18T02:25:09.700Z,8.47
2018-09-18T02:27:38.202Z,8.17
2018-09-18T02:30:06.728Z,8.10
2018-09-18T02:32:35.245Z,8.27
2018-09-18T02:35:03.872Z,7.90
2018-09-18T02:37:32.462Z,9.20
2018-09-18T02:40:01.061Z,8.57
2018-09-18T02:42:29.682Z,9.43
2018-09-18T02:44:58.187Z,9.13
2018-09-18T02:47:26.704Z,9.90
2018-09-18T02:49:55.349Z,10.10
2018-09-18T02:52:23.837Z,9.93
2018-09-18T02:54:52.363Z,11.53
2018-09-18T02:57:20.868Z,10.50
2018-09-18T02:59:49.385Z,10.77
2018-09-18T03:02:17.894Z,10.43
2018-09-18T03:04:46.393Z,10.10
2018-09-18T03:07:14.938Z,10.10
2018-09-18T03:09:43.519Z,9.53
2018-09-18T03:12:12.051Z,9.97
2018-09-18T03:14:40.550Z,9.83
2018-09-18T03:17:09.083Z,9.90
2018-09-18T03:19:37.610Z,10.60
2018-09-18T03:22:06.088Z,11.63
2018-09-18T03:24:34.569Z,8.93
2018-09-18T03:27:03.052Z,9.43
2018-09-18T03:29:31.530Z,10.40
2018-09-18T03:32:00.039Z,9.53
2018-09-18T03:34:28.586Z,9.70
2018-09-18T03:37:03.610Z,7.70
2018-09-18T03:39:32.112Z,7.70
2018-09-18T03:42:01.374Z,8.37
2018-09-18T03:44:30.742Z,8.20
2018-09-18T03:46:59.299Z,8.67
2018-09-18T03:49:27.978Z,7.90
2018-09-18T03:51:56.522Z,7.47
2018-09-18T03:54:24.997Z,7.00
2018-09-18T03:56:53.509Z,7.10
2018-09-18T03:59:21.993Z,7.40
2018-09-18T04:01:50.533Z,6.70
2018-09-18T04:04:19.013Z,7.50
2018-09-18T04:06:47.502Z,7.00
2018-09-18T04:09:15.979Z,7.43
2018-09-18T04:11:44.502Z,6.80
2018-09-18T04:14:13.006Z,6.53
2018-09-18T04:16:41.546Z,7.27
2018-09-18T04:19:10.013Z,6.70
2018-09-18T04:21:41.311Z,6.83
2018-09-18T04:24:09.825Z,6.50
2018-09-18T04:26:39.639Z,6.10
2018-09-18T04:29:09.006Z,7.10
2018-09-18T04:31:39.393Z,6.90
2018-09-18T04:34:07.940Z,7.10
2018-09-18T04:36:36.537Z,6.20
2018-09-18T04:39:08.378Z,7.10
2018-09-18T04:41:36.850Z,6.63
2018-09-18T04:44:05.350Z,6.63
2018-09-18T04:46:33.901Z,6.90
2018-09-18T04:49:02.416Z,6.67
2018-09-18T04:51:31.042Z,6.87
2018-09-18T04:53:59.663Z,7.30
2018-09-18T04:56:28.585Z,6.23
2018-09-18T04:58:57.054Z,6.60
2018-09-18T05:01:26.658Z,6.70
2018-09-18T05:03:55.349Z,6.63
2018-09-18T05:06:23.902Z,7.27
2018-09-18T05:08:52.383Z,5.97
2018-09-18T05:11:21.429Z,6.60
2018-09-18T05:13:50.029Z,6.17
2018-09-18T05:16:18.574Z,6.37
2018-09-18T05:18:47.143Z,5.80
2018-09-18T05:21:15.764Z,6.30
2018-09-18T05:23:44.411Z,6.13
2018-09-18T05:26:13.030Z,6.83
2018-09-18T05:28:41.585Z,6.00
2018-09-18T05:31:10.815Z,6.67
2018-09-18T05:33:39.511Z,6.67
2018-09-18T05:36:08.090Z,6.07
2018-09-18T05:38:36.706Z,5.83
2018-09-18T05:41:05.442Z,6.50
2018-09-18T05:43:34.374Z,6.90
2018-09-18T05:46:02.941Z,6.17
2018-09-18T05:48:33.721Z,6.30
2018-09-18T05:51:02.328Z,6.93
2018-09-18T05:53:30.908Z,6.67
2018-09-18T05:55:59.624Z,6.50
2018-09-18T05:58:28.589Z,5.87
2018-09-18T06:00:56.125Z,6.00
2018-09-18T06:03:24.623Z,6.07
2018-09-18T06:05:53.174Z,6.27
2018-09-18T06:08:21.720Z,6.43
2018-09-18T06:10:50.279Z,5.80
2018-09-18T06:13:18.858Z,5.37
2018-09-18T06:15:47.415Z,6.07
2018-09-18T06:18:15.963Z,5.67
2018-09-18T06:20:44.717Z,5.60
2018-09-18T06:23:13.277Z,5.30
2018-09-18T06:25:41.786Z,5.70
2018-09-18T06:28:10.347Z,5.83
2018-09-18T06:30:38.963Z,5.83
2018-09-18T06:33:07.496Z,5.50
2018-09-18T06:35:36.034Z,6.03
2018-09-18T06:38:04.588Z,6.00
2018-09-18T06:40:33.085Z,6.30
2018-09-18T06:43:01.618Z,6.10
2018-09-18T06:45:30.166Z,6.27
2018-09-18T06:47:58.742Z,5.83
2018-09-18T06:50:27.217Z,5.80
2018-09-18T06:52:55.751Z,6.10
2018-09-18T06:55:24.303Z,6.27
2018-09-18T06:57:52.915Z,6.10
2018-09-18T07:00:21.462Z,6.50
2018-09-18T07:02:49.972Z,5.30
2018-09-18T07:05:18.539Z,5.97
2018-09-18T07:07:47.066Z,6.00
2018-09-18T07:10:15.558Z,5.03
2018-09-18T07:12:44.066Z,5.57
2018-09-18T07:15:12.614Z,6.50
2018-09-18T07:17:41.191Z,5.77
2018-09-18T07:20:09.792Z,5.37
2018-09-18T07:22:38.422Z,5.70
2018-09-18T07:25:07.021Z,5.70
2018-09-18T07:27:35.727Z,5.70
2018-09-18T07:30:04.832Z,5.20
2018-09-18T07:32:33.314Z,5.80
2018-09-18T07:35:01.860Z,5.40
2018-09-18T07:37:30.382Z,5.47
2018-09-18T07:39:58.874Z,5.17
2018-09-18T07:42:27.440Z,6.00
2018-09-18T07:44:56.945Z,6.07
2018-09-18T07:47:25.527Z,5.53
2018-09-18T07:49:54.117Z,4.47
2018-09-18T07:52:22.801Z,5.17
2018-09-18T07:54:51.271Z,5.27
2018-09-18T07:57:19.803Z,5.67
2018-09-18T07:59:48.378Z,4.50
2018-09-18T08:02:16.857Z,4.77
2018-09-18T08:04:45.427Z,5.30
2018-09-18T08:07:13.994Z,5.50
2018-09-18T08:09:42.528Z,5.63
2018-09-18T08:12:11.159Z,5.40
2018-09-18T08:14:39.615Z,4.23
2018-09-18T08:17:08.143Z,4.60
2018-09-18T08:19:36.868Z,4.53
2018-09-18T08:22:05.332Z,4.37
2018-09-18T08:24:33.870Z,5.10
2018-09-18T08:27:02.366Z,5.13
2018-09-18T08:29:31.124Z,4.93
2018-09-18T08:31:59.663Z,4.10
2018-09-18T08:34:28.207Z,5.17
2018-09-18T08:36:56.977Z,4.33
2018-09-18T08:39:25.601Z,4.53
2018-09-18T08:41:54.150Z,4.40
2018-09-18T08:44:22.676Z,4.40
2018-09-18T08:46:51.288Z,4.13
2018-09-18T08:49:19.856Z,4.90
2018-09-18T08:51:48.400Z,4.13
2018-09-18T08:54:16.931Z,5.10
2018-09-18T08:56:45.501Z,4.47
2018-09-18T08:59:14.100Z,5.40
2018-09-18T09:01:42.653Z,4.80
2018-09-18T09:04:11.267Z,4.60
2018-09-18T09:06:39.855Z,4.90
2018-09-18T09:09:11.351Z,4.50
2018-09-18T09:11:39.875Z,4.70
2018-09-18T09:14:08.699Z,4.40
2018-09-18T09:16:37.247Z,4.60
2018-09-18T09:19:05.877Z,5.03
2018-09-18T09:21:34.499Z,5.00
2018-09-18T09:24:03.065Z,5.07
2018-09-18T09:26:31.613Z,4.30
2018-09-18T09:29:00.214Z,4.30
2018-09-18T09:31:28.778Z,4.77
2018-09-18T09:33:57.310Z,5.10
2018-09-18T09:36:25.949Z,4.50
2018-09-18T09:38:54.660Z,4.80
2018-09-18T09:41:23.031Z,4.50
2018-09-18T09:43:51.637Z,4.60
2018-09-18T09:46:20.131Z,4.50
2018-09-18T09:48:48.638Z,4.93
2018-09-18T09:51:17.279Z,4.50
2018-09-18T09:53:46.920Z,4.93
2018-09-18T09:56:15.441Z,5.10
2018-09-18T09:58:43.954Z,5.17
2018-09-18T10:01:17.838Z,5.43
2018-09-18T10:03:46.369Z,5.67
2018-09-18T10:06:14.941Z,5.50
2018-09-18T10:08:44.155Z,5.37
2018-09-18T10:11:12.723Z,5.50
2018-09-18T10:13:41.240Z,5.00
2018-09-18T10:16:09.812Z,5.70
2018-09-18T10:18:38.366Z,5.47
2018-09-18T10:21:06.944Z,5.07
2018-09-18T10:23:35.462Z,5.20
2018-09-18T10:26:04.184Z,5.50
2018-09-18T10:28:32.655Z,5.30
2018-09-18T10:31:01.245Z,5.27
2018-09-18T10:33:29.757Z,5.60
2018-09-18T10:35:58.327Z,5.70
2018-09-18T10:38:26.827Z,5.93
2018-09-18T10:40:55.486Z,6.40
2018-09-18T10:43:24.950Z,7.53
2018-09-18T10:45:53.510Z,6.10
2018-09-18T10:48:22.027Z,6.73
2018-09-18T10:50:51.370Z,5.67
2018-09-18T10:53:20.025Z,6.03
2018-09-18T10:55:48.561Z,5.93
2018-09-18T10:58:17.080Z,6.37
2018-09-18T11:00:46.314Z,5.57
2018-09-18T11:03:15.261Z,6.20
2018-09-18T11:05:44.818Z,5.07
2018-09-18T11:08:15.803Z,5.87
2018-09-18T11:10:44.418Z,5.47
2018-09-18T11:13:13.895Z,6.03
2018-09-18T11:15:43.627Z,5.97
2018-09-18T11:18:13.104Z,6.30
2018-09-18T11:20:42.369Z,6.07
2018-09-18T11:23:11.794Z,6.70
2018-09-18T11:25:40.608Z,6.60
2018-09-18T11:28:12.383Z,6.20
2018-09-18T11:30:42.416Z,6.10
2018-09-18T11:33:12.346Z,6.10
2018-09-18T11:35:40.878Z,6.60
2018-09-18T11:38:09.626Z,6.50
2018-09-18T11:40:38.200Z,6.00
2018-09-18T11:43:06.790Z,5.80
2018-09-18T11:45:36.094Z,5.47
2018-09-18T11:48:04.596Z,5.43
2018-09-18T11:50:33.146Z,6.10
2018-09-18T11:53:01.926Z,6.03
2018-09-18T11:55:30.450Z,6.13
2018-09-18T11:57:59.533Z,6.40
2018-09-18T12:00:28.217Z,6.37
2018-09-18T12:02:56.863Z,5.57
2018-09-18T12:05:25.346Z,5.67
2018-09-18T12:07:53.910Z,5.63
2018-09-18T12:10:23.086Z,5.30
2018-09-18T12:12:51.607Z,5.57
2018-09-18T12:15:20.159Z,5.00
2018-09-18T12:17:49.452Z,5.00
2018-09-18T12:20:18.307Z,5.13
2018-09-18T12:22:46.898Z,4.90
2018-09-18T12:25:15.412Z,4.43
2018-09-18T12:27:44.058Z,4.80
2018-09-18T12:30:12.527Z,4.10
2018-09-18T12:32:41.081Z,4.50
2018-09-18T12:35:09.593Z,4.13
2018-09-18T12:37:38.127Z,3.83
2018-09-18T12:40:06.735Z,4.90
2018-09-18T12:42:35.372Z,3.90
2018-09-18T12:45:03.888Z,3.73
2018-09-18T12:47:32.386Z,3.90
2018-09-18T12:50:01.067Z,3.37
2018-09-18T12:52:29.445Z,3.37
2018-09-18T12:54:58.178Z,3.37
2018-09-18T12:57:26.854Z,3.30
2018-09-18T12:59:55.259Z,3.30
2018-09-18T13:02:23.909Z,3.47
2018-09-18T13:04:52.371Z,3.67
2018-09-18T13:07:20.931Z,3.33
2018-09-18T13:09:49.509Z,3.03
2018-09-18T13:12:17.989Z,3.03
2018-09-18T13:14:46.599Z,3.00
2018-09-18T13:17:15.237Z,3.00
2018-09-18T13:19:44.629Z,2.67
2018-09-18T13:22:13.126Z,3.20
2018-09-18T13:24:41.626Z,3.10
2018-09-18T13:27:10.186Z,2.80
2018-09-18T13:29:38.733Z,2.93
2018-09-18T13:32:07.507Z,3.20
2018-09-18T13:34:36.071Z,3.00
2018-09-18T13:37:04.711Z,2.87
2018-09-18T13:39:33.376Z,2.90
2018-09-18T13:42:02.261Z,2.60
2018-09-18T13:44:31.066Z,3.43
2018-09-18T13:46:59.550Z,2.97
2018-09-18T13:49:28.662Z,4.90
2018-09-18T13:51:57.272Z,2.90
2018-09-18T13:54:25.874Z,3.63
2018-09-18T13:56:54.427Z,3.00
2018-09-18T13:59:23.025Z,4.33
2018-09-18T14:01:51.646Z,2.90
2018-09-18T14:04:20.161Z,2.63
2018-09-18T14:06:48.696Z,2.37
2018-09-18T14:09:17.296Z,3.80
2018-09-18T14:11:45.806Z,3.83
2018-09-18T14:14:14.322Z,4.20
2018-09-18T14:16:42.853Z,3.17
2018-09-18T14:19:11.403Z,3.20
2018-09-18T14:21:39.993Z,3.47
2018-09-18T14:24:08.546Z,3.10
2018-09-18T14:26:37.209Z,3.60
2018-09-18T14:29:05.649Z,2.63
2018-09-18T14:31:34.217Z,2.97
2018-09-18T14:34:02.807Z,3.33
2018-09-18T14:36:31.335Z,3.20
2018-09-18T14:39:00.085Z,2.87
2018-09-18T14:41:28.573Z,3.33
2018-09-18T14:43:57.122Z,2.47
2018-09-18T14:46:25.651Z,2.83
2018-09-18T14:48:54.306Z,3.40
2018-09-18T14:51:22.998Z,3.43
2018-09-18T14:53:51.751Z,2.90
2018-09-18T14:56:20.323Z,2.53
2018-09-18T14:58:48.963Z,3.70
2018-09-18T15:01:17.615Z,3.00
2018-09-18T15:03:46.220Z,2.83
2018-09-18T15:06:14.748Z,2.73
2018-09-18T15:08:43.266Z,4.17
2018-09-18T15:11:11.851Z,3.30
2018-09-18T15:13:40.355Z,3.33
2018-09-18T15:16:08.867Z,2.70
2018-09-18T15:18:37.454Z,3.20
2018-09-18T15:21:06.000Z,2.90
2018-09-18T15:23:34.491Z,3.23
2018-09-18T15:26:02.997Z,3.27
2018-09-18T15:28:31.510Z,4.00
2018-09-18T15:31:00.041Z,2.60
2018-09-18T15:33:28.696Z,3.80
2018-09-18T15:35:57.202Z,3.23
2018-09-18T15:38:25.718Z,3.70
2018-09-18T15:40:54.293Z,3.47
2018-09-18T15:43:22.834Z,4.40
2018-09-18T15:48:24.805Z,2.90
2018-09-18T15:50:53.269Z,3.50
2018-09-18T15:53:21.839Z,3.17
2018-09-18T15:55:51.415Z,3.30
2018-09-18T15:58:20.695Z,3.43
2018-09-18T16:00:49.465Z,3.97
2018-09-18T16:03:17.994Z,3.40
2018-09-18T16:05:46.621Z,3.73
2018-09-18T16:08:15.140Z,3.43
2018-09-18T16:10:44.323Z,3.70
2018-09-18T16:13:13.155Z,3.77
2018-09-18T16:15:42.478Z,3.50
2018-09-18T16:18:11.083Z,3.80
2018-09-18T16:20:39.606Z,3.90
2018-09-18T16:23:08.862Z,3.80
2018-09-18T16:25:37.395Z,3.27
2018-09-18T16:28:06.271Z,4.00
2018-09-18T16:30:34.884Z,3.60
2018-09-18T16:33:03.947Z,3.90
2018-09-18T16:35:32.490Z,3.80
2018-09-18T16:38:01.137Z,3.80
2018-09-18T16:40:29.787Z,3.80
2018-09-18T16:42:58.861Z,4.33
2018-09-18T16:45:27.453Z,4.23
2018-09-18T16:47:55.986Z,5.10
2018-09-18T16:50:24.504Z,4.70
2018-09-18T16:52:53.039Z,5.30
2018-09-18T16:55:21.673Z,5.37
2018-09-18T16:57:50.326Z,4.70
2018-09-18T17:00:21.254Z,5.67
2018-09-18T17:02:49.851Z,5.37
2018-09-18T17:05:19.021Z,4.87
2018-09-18T17:07:47.597Z,4.93
2018-09-18T17:10:16.170Z,5.40
2018-09-18T17:12:44.700Z,5.93
2018-09-18T17:15:13.291Z,5.00
2018-09-18T17:17:42.544Z,6.37
2018-09-18T17:20:11.091Z,5.83
2018-09-18T17:22:39.652Z,5.30
2018-09-18T17:25:08.590Z,5.63
2018-09-18T17:27:37.534Z,6.43
2018-09-18T17:30:06.327Z,5.60
2018-09-18T17:32:35.707Z,7.37
2018-09-18T17:35:04.769Z,6.60
2018-09-18T17:37:34.447Z,6.40
2018-09-18T17:40:03.258Z,5.63
2018-09-18T17:42:31.823Z,5.90
2018-09-18T17:45:01.274Z,6.43
2018-09-18T17:47:29.882Z,5.77
2018-09-18T17:49:58.717Z,6.60
2018-09-18T17:52:27.205Z,6.30
2018-09-18T17:54:55.788Z,5.80
2018-09-18T17:57:24.279Z,5.93
2018-09-18T17:59:52.846Z,6.80
2018-09-18T18:02:22.042Z,6.10
2018-09-18T18:04:50.521Z,6.80
2018-09-18T18:07:19.081Z,5.80
2018-09-18T18:09:47.650Z,6.23
2018-09-18T18:12:16.816Z,5.90
2018-09-18T18:14:45.314Z,5.33
2018-09-18T18:17:13.831Z,6.77
2018-09-18T18:19:42.333Z,5.77
2018-09-18T18:22:10.988Z,5.87
2018-09-18T18:24:39.499Z,6.40
2018-09-18T18:27:08.098Z,5.60
2018-09-18T18:29:37.662Z,6.27
2018-09-18T18:32:06.767Z,8.10
2018-09-18T18:34:35.419Z,5.33
2018-09-18T18:37:03.979Z,5.70
2018-09-18T18:39:32.524Z,6.00
2018-09-18T18:42:01.054Z,5.60
2018-09-18T18:44:31.256Z,6.53
2018-09-18T18:46:59.755Z,6.10
2018-09-18T18:49:32.430Z,5.70
2018-09-18T18:52:00.966Z,5.70
2018-09-18T18:54:29.561Z,5.27
2018-09-18T18:56:58.154Z,5.53
2018-09-18T18:59:27.423Z,6.10
2018-09-18T19:01:55.975Z,6.57
2018-09-18T19:04:24.497Z,5.80
2018-09-18T19:06:53.415Z,6.27
2018-09-18T19:09:21.979Z,5.67
2018-09-18T19:11:51.586Z,6.47
2018-09-18T19:14:20.224Z,5.10
2018-09-18T19:16:48.854Z,4.93
2018-09-18T19:19:17.587Z,5.90
2018-09-18T19:21:46.171Z,5.00
2018-09-18T19:24:14.820Z,5.70
2018-09-18T19:26:43.347Z,4.67
2018-09-18T19:29:11.909Z,5.20
2018-09-18T19:31:41.185Z,6.37
2018-09-18T19:34:09.699Z,5.57
2018-09-18T19:36:38.229Z,6.70
2018-09-18T19:39:09.284Z,6.43
2018-09-18T19:41:37.912Z,5.70
2018-09-18T19:44:06.641Z,5.47
2018-09-18T19:46:35.248Z,5.40
2018-09-18T19:49:03.915Z,5.53
2018-09-18T19:51:32.808Z,6.20
2018-09-18T19:54:01.319Z,5.67
2018-09-18T19:56:31.328Z,5.23
2018-09-18T19:58:59.943Z,6.13
2018-09-18T20:01:28.520Z,5.40
2018-09-18T20:03:57.249Z,6.03
2018-09-18T20:06:25.860Z,5.80
2018-09-18T20:08:55.399Z,5.50
2018-09-18T20:11:23.989Z,6.43
2018-09-18T20:13:53.247Z,5.63
2018-09-18T20:16:21.788Z,5.30
2018-09-18T20:18:50.330Z,5.57
2018-09-18T20:21:18.908Z,5.30
2018-09-18T20:23:47.439Z,5.60
2018-09-18T20:26:15.934Z,5.70
2018-09-18T20:28:44.587Z,6.10
2018-09-18T20:31:13.193Z,7.40
2018-09-18T20:33:42.462Z,5.97
2018-09-18T20:36:11.158Z,5.30
2018-09-18T20:38:39.649Z,7.23
2018-09-18T20:41:08.256Z,6.93
2018-09-18T20:43:37.362Z,6.20
2018-09-18T20:46:05.919Z,6.83
2018-09-18T20:48:34.503Z,6.77
2018-09-18T20:51:03.970Z,7.83
2018-09-18T20:53:32.495Z,7.03
2018-09-18T20:56:01.946Z,7.37
2018-09-18T20:58:30.451Z,8.03
2018-09-18T21:00:59.321Z,7.40
2018-09-18T21:03:27.939Z,8.43
2018-09-18T21:05:56.510Z,7.47
2018-09-18T21:08:25.081Z,8.20
2018-09-18T21:10:53.724Z,7.20
2018-09-18T21:13:22.270Z,6.33
2018-09-18T21:15:50.808Z,5.73
2018-09-18T21:18:19.356Z,5.60
2018-09-18T21:20:48.307Z,5.90
2018-09-18T21:23:16.918Z,6.77
2018-09-18T21:26:17.520Z,5.40
2018-09-18T21:28:46.044Z,5.93
2018-09-18T21:31:14.606Z,6.07
2018-09-18T21:33:43.471Z,5.80
2018-09-18T21:36:12.085Z,4.77
2018-09-18T21:38:41.259Z,5.43
2018-09-18T21:41:09.838Z,5.40
2018-09-18T21:43:38.739Z,5.50
2018-09-18T21:46:08.137Z,5.67
2018-09-18T21:48:38.094Z,6.00
2018-09-18T21:51:07.246Z,5.47
2018-09-18T21:53:36.284Z,4.97
2018-09-18T21:56:04.823Z,5.63
2018-09-18T21:58:33.497Z,5.40
2018-09-18T22:01:04.507Z,5.73
2018-09-18T22:03:33.519Z,6.70
2018-09-18T22:06:02.633Z,4.63
2018-09-18T22:08:31.233Z,5.10
2018-09-18T22:10:59.749Z,5.80
2018-09-18T22:13:28.270Z,5.00
2018-09-18T22:15:56.825Z,3.97
2018-09-18T22:18:25.429Z,5.00
2018-09-18T22:20:53.964Z,5.27
2018-09-18T22:23:22.665Z,5.47
2018-09-18T22:25:51.206Z,5.33
2018-09-18T22:28:19.739Z,5.47
2018-09-18T22:30:48.271Z,4.73
2018-09-18T22:33:17.894Z,4.50
2018-09-18T22:35:46.465Z,4.73
2018-09-18T22:38:15.579Z,5.30
2018-09-18T22:40:45.051Z,4.33
2018-09-18T22:43:13.710Z,4.97
2018-09-18T22:45:42.663Z,4.57
2018-09-18T22:48:11.162Z,5.93
2018-09-18T22:50:39.668Z,5.43
2018-09-18T22:53:08.227Z,6.40
2018-09-18T22:55:36.754Z,4.73
2018-09-18T22:58:05.374Z,4.77
2018-09-18T23:00:33.920Z,4.57
2018-09-18T23:03:02.606Z,4.03
2018-09-18T23:05:31.099Z,4.10
2018-09-18T23:07:59.650Z,4.30
2018-09-18T23:10:28.137Z,4.60
2018-09-18T23:12:57.218Z,4.20
2018-09-18T23:15:25.765Z,5.00
2018-09-18T23:17:54.285Z,5.50
2018-09-18T23:20:22.809Z,4.80
2018-09-18T23:22:51.386Z,3.70
2018-09-18T23:25:19.893Z,3.70
2018-09-18T23:27:49.101Z,4.53
2018-09-18T23:30:17.706Z,4.50
2018-09-18T23:32:46.187Z,4.53
2018-09-18T23:35:14.864Z,3.53
2018-09-18T23:37:43.395Z,3.80
2018-09-18T23:40:12.018Z,5.10
2018-09-18T23:42:40.518Z,4.10
2018-09-18T23:45:09.083Z,4.17
2018-09-18T23:47:37.604Z,4.93
2018-09-18T23:50:06.282Z,4.93
2018-09-18T23:52:34.852Z,5.07
2018-09-18T23:55:03.375Z,4.13
2018-09-18T23:57:32.653Z,4.27
